createdAt,value
2018-08-12T00:00:32.189Z,101221.16
2018-08-12T00:05:35.875Z,101217.49
2018-08-12T00:10:40.166Z,101213.88
2018-08-12T00:15:43.946Z,101209.94
2018-08-12T00:20:47.631Z,101205.50
2018-08-12T00:25:51.383Z,101201.12
2018-08-12T00:30:55.091Z,101198.98
2018-08-12T00:35:58.702Z,101192.56
2018-08-12T00:41:02.289Z,101192.65
2018-08-12T00:46:05.909Z,101184.97
2018-08-12T00:51:09.544Z,101188.42
2018-08-12T00:56:13.390Z,101185.89
2018-08-12T01:01:17.012Z,101182.91
2018-08-12T01:06:20.697Z,101182.05
2018-08-12T01:11:24.328Z,101182.66
2018-08-12T01:16:28.493Z,101182.74
2018-08-12T01:21:32.168Z,101183.16
2018-08-12T01:26:35.784Z,101187.59
2018-08-12T01:31:39.411Z,101185.59
2018-08-12T01:36:43.626Z,101185.61
2018-08-12T01:41:47.543Z,101183.69
2018-08-12T01:46:53.394Z,101176.68
2018-08-12T01:51:57.302Z,101178.36
2018-08-12T01:57:01.645Z,101173.36
2018-08-12T02:02:05.296Z,101162.59
2018-08-12T02:07:08.808Z,101151.29
2018-08-12T02:12:12.503Z,101155.47
2018-08-12T02:17:16.378Z,101148.77
2018-08-12T02:22:20.088Z,101145.70
2018-08-12T02:27:23.740Z,101134.60
2018-08-12T02:32:27.505Z,101125.34
2018-08-12T02:37:31.167Z,101122.55
2018-08-12T02:42:34.848Z,101118.62
2018-08-12T02:47:38.626Z,101104.36
2018-08-12T02:52:42.553Z,101101.11
2018-08-12T02:57:46.170Z,101102.78
2018-08-12T03:02:49.778Z,101101.73
2018-08-12T03:07:54.229Z,101092.56
2018-08-12T03:12:57.812Z,101091.04
2018-08-12T03:18:01.473Z,101090.50
2018-08-12T03:23:05.224Z,101083.59
2018-08-12T03:28:08.949Z,101080.70
2018-08-12T03:33:12.742Z,101072.98
2018-08-12T03:38:16.285Z,101065.10
2018-08-12T03:43:19.885Z,101062.09
2018-08-12T03:48:23.561Z,101055.77
2018-08-12T03:53:27.145Z,101045.22
2018-08-12T03:58:30.792Z,101049.62
2018-08-12T04:03:34.708Z,101041.27
2018-08-12T04:08:38.366Z,101040.27
2018-08-12T04:13:42.398Z,101038.21
2018-08-12T04:18:46.077Z,101038.70
2018-08-12T04:23:52.761Z,101038.72
2018-08-12T04:28:56.516Z,101031.83
2018-08-12T04:34:00.095Z,101027.37
2018-08-12T04:39:04.705Z,101029.02
2018-08-12T04:44:08.927Z,101031.17
2018-08-12T04:49:12.658Z,101038.21
2018-08-12T04:54:17.030Z,101029.54
2018-08-12T04:59:20.711Z,101025.52
2018-08-12T05:04:24.634Z,101014.48
2018-08-12T05:09:28.467Z,101011.34
2018-08-12T05:14:32.378Z,101009.70
2018-08-12T05:19:36.235Z,101000.08
2018-08-12T05:24:39.862Z,100993.73
2018-08-12T05:29:43.972Z,100994.89
2018-08-12T05:34:47.583Z,100989.59
2018-08-12T05:39:51.218Z,100985.38
2018-08-12T05:44:54.802Z,100985.70
2018-08-12T05:49:58.427Z,100983.48
2018-08-12T05:55:02.124Z,100973.77
2018-08-12T06:00:08.754Z,100969.57
2018-08-12T06:05:13.065Z,100969.39
2018-08-12T06:10:16.714Z,100964.86
2018-08-12T06:15:20.430Z,100960.08
2018-08-12T06:20:24.565Z,100963.66
2018-08-12T06:25:29.478Z,100955.69
2018-08-12T06:30:40.197Z,100952.89
2018-08-12T06:35:44.095Z,100945.30
2018-08-12T06:40:48.224Z,100943.14
2018-08-12T06:45:52.339Z,100942.56
2018-08-12T06:50:56.141Z,100935.25
2018-08-12T06:56:00.185Z,100939.42
2018-08-12T07:01:03.792Z,100938.72
2018-08-12T07:06:07.695Z,100936.70
2018-08-12T07:11:11.299Z,100930.19
2018-08-12T07:16:15.843Z,100921.19
2018-08-12T07:21:19.392Z,100921.97
2018-08-12T07:26:23.667Z,100922.18
2018-08-12T07:31:27.473Z,100911.25
2018-08-12T07:36:31.053Z,100915.92
2018-08-12T07:41:34.649Z,100909.31
2018-08-12T07:46:38.299Z,100905.55
2018-08-12T07:51:41.856Z,100901.86
2018-08-12T07:56:45.539Z,100901.09
2018-08-12T08:01:49.796Z,100901.23
2018-08-12T08:06:53.372Z,100903.23
2018-08-12T08:11:56.881Z,100903.17
2018-08-12T08:17:00.441Z,100889.40
2018-08-12T08:22:04.075Z,100878.82
2018-08-12T08:27:07.721Z,100879.88
2018-08-12T08:32:11.994Z,100877.47
2018-08-12T08:37:15.754Z,100874.50
2018-08-12T08:42:19.557Z,100873.92
2018-08-12T08:47:23.626Z,100873.88
2018-08-12T08:52:27.140Z,100870.84
2018-08-12T08:57:30.847Z,100868.25
2018-08-12T09:02:34.677Z,100861.39
2018-08-12T09:07:38.575Z,100851.10
2018-08-12T09:12:42.523Z,100845.08
2018-08-12T09:17:46.647Z,100839.50
2018-08-12T09:22:50.194Z,100837.91
2018-08-12T09:27:54.464Z,100824.26
2018-08-12T09:32:58.139Z,100819.52
2018-08-12T09:38:01.718Z,100809.22
2018-08-12T09:43:05.338Z,100806.31
2018-08-12T09:48:09.625Z,100795.45
2018-08-12T09:53:14.454Z,100792.19
2018-08-12T09:58:18.410Z,100797.58
2018-08-12T10:03:22.143Z,100786.05
2018-08-12T10:08:26.795Z,100780.13
2018-08-12T10:13:30.402Z,100773.64
2018-08-12T10:18:34.200Z,100771.94
2018-08-12T10:23:37.804Z,100764.73
2018-08-12T10:28:41.383Z,100761.22
2018-08-12T10:33:45.204Z,100756.36
2018-08-12T10:38:49.875Z,100751.99
2018-08-12T10:43:53.681Z,100731.22
2018-08-12T10:48:58.844Z,100738.22
2018-08-12T10:54:02.799Z,100727.47
2018-08-12T10:59:06.618Z,100722.59
2018-08-12T11:04:10.188Z,100715.09
2018-08-12T11:09:14.028Z,100710.94
2018-08-12T11:14:17.781Z,100707.51
2018-08-12T11:19:21.421Z,100705.14
2018-08-12T11:24:25.024Z,100700.41
2018-08-12T11:29:28.692Z,100686.87
2018-08-12T11:34:32.299Z,100682.75
2018-08-12T11:39:35.923Z,100675.89
2018-08-12T11:44:40.592Z,100676.58
2018-08-12T11:49:45.207Z,100671.54
2018-08-12T11:54:48.869Z,100670.11
2018-08-12T11:59:52.592Z,100652.57
2018-08-12T12:04:56.250Z,100643.48
2018-08-12T12:09:59.938Z,100638.23
2018-08-12T12:15:04.519Z,100637.37
2018-08-12T12:20:10.555Z,100623.53
2018-08-12T12:25:15.612Z,100620.63
2018-08-12T12:30:31.981Z,100610.91
2018-08-12T12:35:35.721Z,100611.77
2018-08-12T12:40:39.589Z,100603.63
2018-08-12T12:45:44.263Z,100589.64
2018-08-12T12:50:49.939Z,100590.00
2018-08-12T12:55:55.835Z,100585.27
2018-08-12T13:00:59.953Z,100580.66
2018-08-12T13:06:03.619Z,100571.70
2018-08-12T13:11:07.400Z,100564.33
2018-08-12T13:16:11.213Z,100560.03
2018-08-12T13:21:15.057Z,100549.59
2018-08-12T13:26:18.828Z,100544.03
2018-08-12T13:31:23.736Z,100532.34
2018-08-12T13:36:28.072Z,100528.72
2018-08-12T13:41:32.590Z,100526.00
2018-08-12T13:46:37.120Z,100519.81
2018-08-12T13:51:42.141Z,100507.30
2018-08-12T13:56:52.503Z,100505.91
2018-08-12T14:01:58.576Z,100491.02
2018-08-12T14:07:02.950Z,100490.20
2018-08-12T14:12:06.896Z,100472.74
2018-08-12T14:17:11.297Z,100470.39
2018-08-12T14:22:16.049Z,100460.41
2018-08-12T14:27:21.265Z,100457.70
2018-08-12T14:32:25.603Z,100456.08
2018-08-12T14:37:30.016Z,100442.47
2018-08-12T14:42:34.497Z,100430.45
2018-08-12T14:47:39.086Z,100425.98
2018-08-12T14:52:42.981Z,100420.61
2018-08-12T14:57:47.837Z,100407.61
2018-08-12T15:02:52.553Z,100407.63
2018-08-12T15:07:56.266Z,100401.64
2018-08-12T15:13:00.654Z,100388.13
2018-08-12T15:18:05.367Z,100388.80
2018-08-12T15:23:10.446Z,100386.71
2018-08-12T15:28:14.527Z,100377.66
2018-08-12T15:33:20.757Z,100365.56
2018-08-12T15:38:25.014Z,100361.89
2018-08-12T15:43:28.974Z,100358.89
2018-08-12T15:48:32.815Z,100356.53
2018-08-12T15:53:37.312Z,100346.34
2018-08-12T15:58:40.962Z,100349.55
2018-08-12T16:03:44.555Z,100346.47
2018-08-12T16:08:49.069Z,100348.91
2018-08-12T16:13:52.694Z,100337.45
2018-08-12T16:18:57.279Z,100340.09
2018-08-12T16:24:01.090Z,100332.62
2018-08-12T16:29:04.742Z,100326.43
2018-08-12T16:34:18.456Z,100318.47
2018-08-12T16:39:22.036Z,100307.78
2018-08-12T16:44:25.689Z,100312.44
2018-08-12T16:49:29.614Z,100311.82
2018-08-12T16:54:33.118Z,100306.64
2018-08-12T16:59:36.732Z,100289.27
2018-08-12T17:04:40.369Z,100285.20
2018-08-12T17:09:44.010Z,100289.47
2018-08-12T17:14:47.654Z,100288.31
2018-08-12T17:19:51.253Z,100281.61
2018-08-12T17:24:54.884Z,100274.63
2018-08-12T17:29:58.511Z,100264.12
2018-08-12T17:35:02.058Z,100259.94
2018-08-12T17:40:07.662Z,100256.93
2018-08-12T17:45:12.747Z,100253.04
2018-08-12T17:50:17.354Z,100251.67
2018-08-12T17:55:21.258Z,100257.85
2018-08-12T18:00:31.907Z,100251.52
2018-08-12T18:05:35.534Z,100241.33
2018-08-12T18:10:39.102Z,100243.00
2018-08-12T18:15:42.867Z,100239.19
2018-08-12T18:20:46.529Z,100243.36
2018-08-12T18:25:50.293Z,100238.84
2018-08-12T18:30:53.946Z,100229.80
2018-08-12T18:35:57.717Z,100236.20
2018-08-12T18:41:01.315Z,100224.41
2018-08-12T18:46:05.258Z,100219.03
2018-08-12T18:51:08.993Z,100224.34
2018-08-12T18:56:13.409Z,100224.65
2018-08-12T19:01:17.175Z,100227.41
2018-08-12T19:06:21.284Z,100231.99
2018-08-12T19:11:24.939Z,100233.58
2018-08-12T19:16:28.558Z,100230.01
2018-08-12T19:21:32.778Z,100236.21
2018-08-12T19:26:36.499Z,100235.33
2018-08-12T19:31:40.437Z,100228.06
2018-08-12T19:36:44.075Z,100227.17
2018-08-12T19:41:48.020Z,100223.22
2018-08-12T19:46:51.677Z,100216.80
2018-08-12T19:51:55.263Z,100216.45
2018-08-12T19:56:59.467Z,100213.80
2018-08-12T20:02:03.110Z,100216.47
2018-08-12T20:07:06.768Z,100211.08
2018-08-12T20:12:10.523Z,100206.25
2018-08-12T20:17:14.081Z,100206.72
2018-08-12T20:22:17.921Z,100201.41
2018-08-12T20:27:21.529Z,100196.02
2018-08-12T20:32:25.343Z,100195.67
2018-08-12T20:37:28.975Z,100193.88
2018-08-12T20:42:32.642Z,100184.69
2018-08-12T20:47:36.381Z,100184.21
2018-08-12T20:52:39.938Z,100180.78
2018-08-12T20:57:43.535Z,100177.54
2018-08-12T21:02:47.254Z,100175.83
2018-08-12T21:07:50.922Z,100166.33
2018-08-12T21:12:54.524Z,100171.82
2018-08-12T21:17:58.763Z,100171.45
2018-08-12T21:23:03.430Z,100167.19
2018-08-12T21:28:07.659Z,100161.14
2018-08-12T21:33:11.290Z,100156.04
2018-08-12T21:38:14.870Z,100159.46
2018-08-12T21:43:18.422Z,100148.02
2018-08-12T21:48:22.012Z,100143.15
2018-08-12T21:53:25.641Z,100134.11
2018-08-12T21:58:29.721Z,100134.11
2018-08-12T22:03:33.609Z,100133.64
2018-08-12T22:08:37.191Z,100125.05
2018-08-12T22:13:40.830Z,100126.65
2018-08-12T22:18:44.925Z,100123.48
2018-08-12T22:23:48.463Z,100118.02
2018-08-12T22:28:52.064Z,100114.06
2018-08-12T22:33:55.786Z,100117.55
2018-08-12T22:38:59.493Z,100121.73
2018-08-12T22:44:03.177Z,100120.94
2018-08-12T22:49:07.546Z,100119.33
2018-08-12T22:54:11.385Z,100119.94
2018-08-12T22:59:15.620Z,100104.71
2018-08-12T23:04:19.251Z,100111.03
2018-08-12T23:09:22.943Z,100107.31
2018-08-12T23:14:26.574Z,100103.59
2018-08-12T23:19:32.093Z,100104.36
2018-08-12T23:24:35.821Z,100099.70
2018-08-12T23:29:39.553Z,100087.14
2018-08-12T23:34:43.111Z,100080.31
2018-08-12T23:39:46.733Z,100071.94
2018-08-12T23:44:50.270Z,100066.91
2018-08-12T23:49:53.868Z,100059.84
2018-08-12T23:54:57.531Z,100053.94
